SBJP/JPA METAR and TAF weather

Enter ICAO airport designator
Station Type Date Time Source
SBJP METAR 2022/12/10 02:00 UTC NOAA

SBJP 100200Z 08003KT 9999 FEW020 26/23 Q1013


Station Type Date Time Source
SBJP Decoded METAR 2022/12/10 02:00 UTC NOAA

Joao Pessoa, Brazil (SBJP) 07-06S 034-52W
Dec 09, 2022 - 09:00 PM EST / 2022.12.10 0200 UTC
Wind: from the E (080 degrees) at 3 MPH (3 KT):0
Visibility: greater than 7 mile(s):0
Sky conditions: mostly clear
Temperature: 78 F (26 C)
Dew Point: 73 F (23 C)
Relative Humidity: 83%
Pressure (altimeter): 29.91 in. Hg (1013 hPa)
ob: SBJP 100200Z 08003KT 9999 FEW020 26/23 Q1013
cycle: 2

Station Type Date Time Source
SBJP TAF 2022/12/10 06:57 UTC NOAA

TAF TAF SBJP 100055Z 1006/1106 08005KT 9999 FEW025 TN25/1008Z TX30/1016Z
BECMG 1011/1013 05010KT BKN030
BECMG 1015/1017 SCT030
BECMG 1022/1024 08005KT FEW030
TEMPO 1101/1106 6000 RA BKN015
RMK PFV

Example: see airport list